sensor_id;sensor_type;location;lat;lon;timestamp;P1;durP1;ratioP1;P2;durP2;ratioP2
73264;SDS011;61493;51.008;14.088;2022-07-25T00:00:09;11.95;;;7.55;;
73264;SDS011;61493;51.008;14.088;2022-07-25T00:02:36;10.07;;;6.30;;
73264;SDS011;61493;51.008;14.088;2022-07-25T00:05:02;9.00;;;5.70;;
73264;SDS011;61493;51.008;14.088;2022-07-25T00:07:28;8.98;;;5.55;;
73264;SDS011;61493;51.008;14.088;2022-07-25T00:09:53;7.70;;;5.43;;
73264;SDS011;61493;51.008;14.088;2022-07-25T00:12:19;7.85;;;5.22;;
73264;SDS011;61493;51.008;14.088;2022-07-25T00:14:45;7.03;;;5.10;;
73264;SDS011;61493;51.008;14.088;2022-07-25T00:17:10;8.32;;;4.80;;
73264;SDS011;61493;51.008;14.088;2022-07-25T00:19:35;6.78;;;4.68;;
73264;SDS011;61493;51.008;14.088;2022-07-25T00:22:01;6.65;;;4.93;;
73264;SDS011;61493;51.008;14.088;2022-07-25T00:24:26;7.82;;;5.53;;
73264;SDS011;61493;51.008;14.088;2022-07-25T00:26:51;5.55;;;4.32;;
73264;SDS011;61493;51.008;14.088;2022-07-25T00:29:17;7.65;;;5.13;;
73264;SDS011;61493;51.008;14.088;2022-07-25T00:31:42;6.22;;;4.65;;
73264;SDS011;61493;51.008;14.088;2022-07-25T00:34:07;6.28;;;3.97;;
73264;SDS011;61493;51.008;14.088;2022-07-25T00:36:32;7.13;;;4.05;;
73264;SDS011;61493;51.008;14.088;2022-07-25T00:38:58;5.38;;;3.90;;
73264;SDS011;61493;51.008;14.088;2022-07-25T00:41:23;5.38;;;4.03;;
73264;SDS011;61493;51.008;14.088;2022-07-25T00:43:48;5.78;;;3.67;;
73264;SDS011;61493;51.008;14.088;2022-07-25T00:46:14;9.75;;;4.40;;
73264;SDS011;61493;51.008;14.088;2022-07-25T00:48:40;5.72;;;3.78;;
73264;SDS011;61493;51.008;14.088;2022-07-25T00:51:06;5.53;;;4.13;;
73264;SDS011;61493;51.008;14.088;2022-07-25T00:53:33;7.00;;;3.83;;
73264;SDS011;61493;51.008;14.088;2022-07-25T00:55:59;6.75;;;3.97;;
73264;SDS011;61493;51.008;14.088;2022-07-25T00:58:24;7.35;;;4.78;;
73264;SDS011;61493;51.008;14.088;2022-07-25T01:00:50;6.38;;;4.50;;
73264;SDS011;61493;51.008;14.088;2022-07-25T01:03:15;15.15;;;5.65;;
73264;SDS011;61493;51.008;14.088;2022-07-25T01:05:41;7.22;;;4.97;;
73264;SDS011;61493;51.008;14.088;2022-07-25T01:08:06;6.70;;;4.57;;
73264;SDS011;61493;51.008;14.088;2022-07-25T01:10:32;6.57;;;4.38;;
73264;SDS011;61493;51.008;14.088;2022-07-25T01:12:57;9.00;;;5.03;;
73264;SDS011;61493;51.008;14.088;2022-07-25T01:15:23;8.55;;;5.43;;
73264;SDS011;61493;51.008;14.088;2022-07-25T01:17:49;8.27;;;5.10;;
73264;SDS011;61493;51.008;14.088;2022-07-25T01:20:21;8.85;;;5.40;;
73264;SDS011;61493;51.008;14.088;2022-07-25T01:22:48;6.43;;;4.65;;
73264;SDS011;61493;51.008;14.088;2022-07-25T01:25:20;7.83;;;5.00;;
73264;SDS011;61493;51.008;14.088;2022-07-25T01:27:50;6.45;;;4.55;;
73264;SDS011;61493;51.008;14.088;2022-07-25T01:30:16;8.82;;;4.93;;
73264;SDS011;61493;51.008;14.088;2022-07-25T01:32:44;8.85;;;5.03;;
73264;SDS011;61493;51.008;14.088;2022-07-25T01:35:15;6.70;;;4.22;;
73264;SDS011;61493;51.008;14.088;2022-07-25T01:37:41;6.68;;;3.90;;
73264;SDS011;61493;51.008;14.088;2022-07-25T01:40:07;6.43;;;4.03;;
73264;SDS011;61493;51.008;14.088;2022-07-25T01:42:35;6.28;;;4.07;;
73264;SDS011;61493;51.008;14.088;2022-07-25T01:45:07;4.70;;;3.47;;
73264;SDS011;61493;51.008;14.088;2022-07-25T01:47:36;6.47;;;4.15;;
73264;SDS011;61493;51.008;14.088;2022-07-25T01:50:01;4.70;;;3.60;;
73264;SDS011;61493;51.008;14.088;2022-07-25T01:52:27;6.18;;;4.18;;
73264;SDS011;61493;51.008;14.088;2022-07-25T01:54:52;5.97;;;4.43;;
73264;SDS011;61493;51.008;14.088;2022-07-25T01:57:23;5.85;;;3.80;;
73264;SDS011;61493;51.008;14.088;2022-07-25T01:59:51;6.82;;;4.25;;
73264;SDS011;61493;51.008;14.088;2022-07-25T02:02:18;5.70;;;4.03;;
73264;SDS011;61493;51.008;14.088;2022-07-25T02:04:44;6.25;;;3.63;;
73264;SDS011;61493;51.008;14.088;2022-07-25T02:07:12;7.38;;;4.30;;
73264;SDS011;61493;51.008;14.088;2022-07-25T02:09:37;7.00;;;3.40;;
73264;SDS011;61493;51.008;14.088;2022-07-25T02:12:04;6.15;;;3.50;;
73264;SDS011;61493;51.008;14.088;2022-07-25T02:14:31;5.32;;;3.42;;
73264;SDS011;61493;51.008;14.088;2022-07-25T02:16:57;6.53;;;3.00;;
73264;SDS011;61493;51.008;14.088;2022-07-25T02:19:22;5.10;;;3.45;;
73264;SDS011;61493;51.008;14.088;2022-07-25T02:21:47;5.80;;;3.63;;
73264;SDS011;61493;51.008;14.088;2022-07-25T02:24:12;4.60;;;2.90;;
73264;SDS011;61493;51.008;14.088;2022-07-25T02:26:38;4.78;;;3.20;;
73264;SDS011;61493;51.008;14.088;2022-07-25T02:29:03;3.92;;;3.05;;
73264;SDS011;61493;51.008;14.088;2022-07-25T02:31:28;5.35;;;3.42;;
73264;SDS011;61493;51.008;14.088;2022-07-25T02:33:53;4.47;;;3.35;;
73264;SDS011;61493;51.008;14.088;2022-07-25T02:36:19;5.78;;;3.50;;
73264;SDS011;61493;51.008;14.088;2022-07-25T02:38:44;4.72;;;3.60;;
73264;SDS011;61493;51.008;14.088;2022-07-25T02:41:09;5.93;;;3.35;;
73264;SDS011;61493;51.008;14.088;2022-07-25T02:43:35;5.35;;;3.40;;
73264;SDS011;61493;51.008;14.088;2022-07-25T02:46:00;6.55;;;4.20;;
73264;SDS011;61493;51.008;14.088;2022-07-25T02:48:26;6.80;;;3.50;;
73264;SDS011;61493;51.008;14.088;2022-07-25T02:50:51;5.53;;;3.85;;
73264;SDS011;61493;51.008;14.088;2022-07-25T02:53:16;6.07;;;4.38;;
73264;SDS011;61493;51.008;14.088;2022-07-25T02:55:41;7.82;;;4.22;;
73264;SDS011;61493;51.008;14.088;2022-07-25T02:58:07;6.47;;;4.43;;
73264;SDS011;61493;51.008;14.088;2022-07-25T03:00:35;7.72;;;4.07;;
73264;SDS011;61493;51.008;14.088;2022-07-25T03:03:01;5.88;;;4.32;;
73264;SDS011;61493;51.008;14.088;2022-07-25T03:05:26;6.22;;;4.45;;
73264;SDS011;61493;51.008;14.088;2022-07-25T03:07:51;7.50;;;4.20;;
73264;SDS011;61493;51.008;14.088;2022-07-25T03:10:17;7.22;;;5.10;;
73264;SDS011;61493;51.008;14.088;2022-07-25T03:12:42;8.02;;;4.93;;
73264;SDS011;61493;51.008;14.088;2022-07-25T03:15:09;9.52;;;4.65;;
73264;SDS011;61493;51.008;14.088;2022-07-25T03:17:35;7.50;;;4.05;;
73264;SDS011;61493;51.008;14.088;2022-07-25T03:20:00;6.55;;;5.00;;
73264;SDS011;61493;51.008;14.088;2022-07-25T03:22:26;6.80;;;5.15;;
73264;SDS011;61493;51.008;14.088;2022-07-25T03:24:51;5.70;;;4.40;;
73264;SDS011;61493;51.008;14.088;2022-07-25T03:27:17;6.32;;;4.00;;
73264;SDS011;61493;51.008;14.088;2022-07-25T03:29:42;7.35;;;4.30;;
73264;SDS011;61493;51.008;14.088;2022-07-25T03:32:08;6.45;;;4.75;;
73264;SDS011;61493;51.008;14.088;2022-07-25T03:34:33;6.47;;;4.53;;
73264;SDS011;61493;51.008;14.088;2022-07-25T03:36:59;5.47;;;4.10;;
73264;SDS011;61493;51.008;14.088;2022-07-25T03:39:24;6.72;;;4.60;;
73264;SDS011;61493;51.008;14.088;2022-07-25T03:41:51;5.72;;;4.50;;
73264;SDS011;61493;51.008;14.088;2022-07-25T03:44:18;5.70;;;4.32;;
73264;SDS011;61493;51.008;14.088;2022-07-25T03:46:46;6.65;;;4.70;;
73264;SDS011;61493;51.008;14.088;2022-07-25T03:49:12;5.55;;;3.97;;
73264;SDS011;61493;51.008;14.088;2022-07-25T03:51:37;5.18;;;4.35;;
73264;SDS011;61493;51.008;14.088;2022-07-25T03:54:02;6.35;;;3.95;;
73264;SDS011;61493;51.008;14.088;2022-07-25T03:59:12;5.60;;;3.72;;
73264;SDS011;61493;51.008;14.088;2022-07-25T04:01:39;4.20;;;3.30;;
73264;SDS011;61493;51.008;14.088;2022-07-25T04:04:06;5.00;;;3.65;;
73264;SDS011;61493;51.008;14.088;2022-07-25T04:06:31;5.35;;;3.38;;
73264;SDS011;61493;51.008;14.088;2022-07-25T04:08:56;6.30;;;3.60;;
73264;SDS011;61493;51.008;14.088;2022-07-25T04:11:22;4.57;;;3.35;;
73264;SDS011;61493;51.008;14.088;2022-07-25T04:13:48;6.88;;;3.65;;
73264;SDS011;61493;51.008;14.088;2022-07-25T04:16:14;5.60;;;3.65;;
73264;SDS011;61493;51.008;14.088;2022-07-25T04:18:40;4.95;;;3.40;;
73264;SDS011;61493;51.008;14.088;2022-07-25T04:21:05;6.22;;;3.85;;
73264;SDS011;61493;51.008;14.088;2022-07-25T04:23:31;6.82;;;3.95;;
73264;SDS011;61493;51.008;14.088;2022-07-25T04:25:57;4.65;;;3.83;;
73264;SDS011;61493;51.008;14.088;2022-07-25T04:28:23;6.30;;;4.85;;
73264;SDS011;61493;51.008;14.088;2022-07-25T04:30:48;7.20;;;4.70;;
73264;SDS011;61493;51.008;14.088;2022-07-25T04:33:14;7.85;;;5.47;;
73264;SDS011;61493;51.008;14.088;2022-07-25T04:35:40;6.88;;;4.78;;
73264;SDS011;61493;51.008;14.088;2022-07-25T04:38:05;9.15;;;4.93;;
73264;SDS011;61493;51.008;14.088;2022-07-25T04:40:30;7.65;;;4.43;;
73264;SDS011;61493;51.008;14.088;2022-07-25T04:42:56;9.00;;;5.22;;
73264;SDS011;61493;51.008;14.088;2022-07-25T04:45:21;6.68;;;4.93;;
73264;SDS011;61493;51.008;14.088;2022-07-25T04:47:47;7.15;;;4.93;;
73264;SDS011;61493;51.008;14.088;2022-07-25T04:50:12;8.80;;;5.15;;
73264;SDS011;61493;51.008;14.088;2022-07-25T04:52:38;8.73;;;5.95;;
73264;SDS011;61493;51.008;14.088;2022-07-25T04:55:03;9.63;;;5.68;;
73264;SDS011;61493;51.008;14.088;2022-07-25T04:57:29;8.32;;;6.30;;
73264;SDS011;61493;51.008;14.088;2022-07-25T04:59:55;8.80;;;6.55;;
73264;SDS011;61493;51.008;14.088;2022-07-25T05:02:20;10.27;;;7.18;;
73264;SDS011;61493;51.008;14.088;2022-07-25T05:04:45;10.50;;;7.43;;
73264;SDS011;61493;51.008;14.088;2022-07-25T05:07:11;10.38;;;7.90;;
73264;SDS011;61493;51.008;14.088;2022-07-25T05:09:36;16.40;;;8.68;;
73264;SDS011;61493;51.008;14.088;2022-07-25T05:12:02;15.23;;;10.73;;
73264;SDS011;61493;51.008;14.088;2022-07-25T05:14:27;12.02;;;10.13;;
73264;SDS011;61493;51.008;14.088;2022-07-25T05:16:52;12.35;;;11.05;;
73264;SDS011;61493;51.008;14.088;2022-07-25T05:19:18;16.27;;;12.02;;
73264;SDS011;61493;51.008;14.088;2022-07-25T05:21:43;15.30;;;12.98;;
73264;SDS011;61493;51.008;14.088;2022-07-25T05:24:08;20.02;;;15.30;;
73264;SDS011;61493;51.008;14.088;2022-07-25T05:26:33;17.05;;;15.07;;
73264;SDS011;61493;51.008;14.088;2022-07-25T05:29:02;18.40;;;15.85;;
73264;SDS011;61493;51.008;14.088;2022-07-25T05:31:27;23.30;;;17.67;;
73264;SDS011;61493;51.008;14.088;2022-07-25T05:33:52;18.75;;;16.75;;
73264;SDS011;61493;51.008;14.088;2022-07-25T05:36:18;23.65;;;16.27;;
73264;SDS011;61493;51.008;14.088;2022-07-25T05:38:43;23.90;;;17.35;;
73264;SDS011;61493;51.008;14.088;2022-07-25T05:41:09;20.92;;;16.33;;
73264;SDS011;61493;51.008;14.088;2022-07-25T05:43:34;23.45;;;17.02;;
73264;SDS011;61493;51.008;14.088;2022-07-25T05:46:00;22.63;;;16.73;;
73264;SDS011;61493;51.008;14.088;2022-07-25T05:48:26;24.77;;;19.02;;
73264;SDS011;61493;51.008;14.088;2022-07-25T05:50:52;25.60;;;18.33;;
73264;SDS011;61493;51.008;14.088;2022-07-25T05:53:17;22.30;;;18.70;;
73264;SDS011;61493;51.008;14.088;2022-07-25T05:55:42;24.45;;;20.15;;
73264;SDS011;61493;51.008;14.088;2022-07-25T05:58:07;25.80;;;20.00;;
73264;SDS011;61493;51.008;14.088;2022-07-25T06:00:33;30.05;;;20.25;;
73264;SDS011;61493;51.008;14.088;2022-07-25T06:02:59;26.08;;;20.13;;
73264;SDS011;61493;51.008;14.088;2022-07-25T06:05:24;28.23;;;21.38;;
73264;SDS011;61493;51.008;14.088;2022-07-25T06:07:49;24.33;;;21.08;;
73264;SDS011;61493;51.008;14.088;2022-07-25T06:10:15;29.10;;;22.38;;
73264;SDS011;61493;51.008;14.088;2022-07-25T06:12:40;27.98;;;22.33;;
73264;SDS011;61493;51.008;14.088;2022-07-25T06:15:05;25.40;;;20.17;;
73264;SDS011;61493;51.008;14.088;2022-07-25T06:17:31;28.65;;;21.30;;
73264;SDS011;61493;51.008;14.088;2022-07-25T06:19:56;24.33;;;20.63;;
73264;SDS011;61493;51.008;14.088;2022-07-25T06:22:21;31.80;;;21.75;;
73264;SDS011;61493;51.008;14.088;2022-07-25T06:24:47;29.10;;;23.88;;
73264;SDS011;61493;51.008;14.088;2022-07-25T06:27:12;28.10;;;24.45;;
73264;SDS011;61493;51.008;14.088;2022-07-25T06:29:37;31.35;;;26.27;;
73264;SDS011;61493;51.008;14.088;2022-07-25T06:32:03;32.15;;;27.35;;
73264;SDS011;61493;51.008;14.088;2022-07-25T06:34:28;34.42;;;26.15;;
73264;SDS011;61493;51.008;14.088;2022-07-25T06:36:54;31.35;;;25.67;;
73264;SDS011;61493;51.008;14.088;2022-07-25T06:39:21;30.23;;;25.52;;
73264;SDS011;61493;51.008;14.088;2022-07-25T06:41:46;30.13;;;25.20;;
73264;SDS011;61493;51.008;14.088;2022-07-25T06:44:11;34.90;;;27.17;;
73264;SDS011;61493;51.008;14.088;2022-07-25T06:46:37;37.20;;;31.67;;
73264;SDS011;61493;51.008;14.088;2022-07-25T06:49:02;34.97;;;29.13;;
73264;SDS011;61493;51.008;14.088;2022-07-25T06:51:27;36.93;;;30.23;;
73264;SDS011;61493;51.008;14.088;2022-07-25T06:53:52;33.47;;;29.63;;
73264;SDS011;61493;51.008;14.088;2022-07-25T06:56:18;35.35;;;28.95;;
73264;SDS011;61493;51.008;14.088;2022-07-25T06:58:43;33.38;;;28.98;;
73264;SDS011;61493;51.008;14.088;2022-07-25T07:01:09;29.02;;;25.98;;
73264;SDS011;61493;51.008;14.088;2022-07-25T07:03:34;31.27;;;26.05;;
73264;SDS011;61493;51.008;14.088;2022-07-25T07:06:03;29.88;;;25.60;;
73264;SDS011;61493;51.008;14.088;2022-07-25T07:08:29;27.73;;;21.45;;
73264;SDS011;61493;51.008;14.088;2022-07-25T07:10:55;29.58;;;21.40;;
73264;SDS011;61493;51.008;14.088;2022-07-25T07:13:20;24.40;;;19.67;;
73264;SDS011;61493;51.008;14.088;2022-07-25T07:15:47;23.08;;;19.40;;
73264;SDS011;61493;51.008;14.088;2022-07-25T07:18:14;21.33;;;18.45;;
73264;SDS011;61493;51.008;14.088;2022-07-25T07:20:40;21.33;;;18.48;;
73264;SDS011;61493;51.008;14.088;2022-07-25T07:23:06;22.10;;;17.52;;
73264;SDS011;61493;51.008;14.088;2022-07-25T07:25:31;23.50;;;18.58;;
73264;SDS011;61493;51.008;14.088;2022-07-25T07:27:57;18.25;;;15.32;;
73264;SDS011;61493;51.008;14.088;2022-07-25T07:30:23;14.35;;;11.77;;
73264;SDS011;61493;51.008;14.088;2022-07-25T07:32:48;12.95;;;10.77;;
73264;SDS011;61493;51.008;14.088;2022-07-25T07:35:13;13.32;;;10.55;;
73264;SDS011;61493;51.008;14.088;2022-07-25T07:37:40;12.00;;;9.32;;
73264;SDS011;61493;51.008;14.088;2022-07-25T07:40:07;10.60;;;7.78;;
73264;SDS011;61493;51.008;14.088;2022-07-25T07:42:37;7.35;;;6.35;;
73264;SDS011;61493;51.008;14.088;2022-07-25T07:45:15;9.98;;;7.35;;
73264;SDS011;61493;51.008;14.088;2022-07-25T07:47:42;9.00;;;5.32;;
73264;SDS011;61493;51.008;14.088;2022-07-25T07:50:07;9.57;;;6.32;;
73264;SDS011;61493;51.008;14.088;2022-07-25T07:52:33;17.85;;;5.90;;
73264;SDS011;61493;51.008;14.088;2022-07-25T07:54:59;7.63;;;5.70;;
73264;SDS011;61493;51.008;14.088;2022-07-25T07:57:43;6.43;;;5.28;;
73264;SDS011;61493;51.008;14.088;2022-07-25T08:00:09;6.90;;;6.00;;
73264;SDS011;61493;51.008;14.088;2022-07-25T08:02:42;9.27;;;4.82;;
73264;SDS011;61493;51.008;14.088;2022-07-25T08:05:23;10.05;;;5.68;;
73264;SDS011;61493;51.008;14.088;2022-07-25T08:07:51;6.63;;;5.45;;
73264;SDS011;61493;51.008;14.088;2022-07-25T08:10:23;6.38;;;4.90;;
73264;SDS011;61493;51.008;14.088;2022-07-25T08:12:50;7.97;;;4.95;;
73264;SDS011;61493;51.008;14.088;2022-07-25T08:15:16;7.57;;;4.65;;
73264;SDS011;61493;51.008;14.088;2022-07-25T08:17:43;6.05;;;4.25;;
73264;SDS011;61493;51.008;14.088;2022-07-25T08:20:09;5.63;;;4.28;;
73264;SDS011;61493;51.008;14.088;2022-07-25T08:22:39;6.15;;;4.85;;
73264;SDS011;61493;51.008;14.088;2022-07-25T08:25:06;5.50;;;4.22;;
73264;SDS011;61493;51.008;14.088;2022-07-25T08:27:33;7.60;;;4.32;;
73264;SDS011;61493;51.008;14.088;2022-07-25T08:29:59;5.18;;;4.07;;
73264;SDS011;61493;51.008;14.088;2022-07-25T08:32:25;4.55;;;4.10;;
73264;SDS011;61493;51.008;14.088;2022-07-25T08:34:52;5.50;;;4.40;;
73264;SDS011;61493;51.008;14.088;2022-07-25T08:37:18;6.47;;;4.28;;
73264;SDS011;61493;51.008;14.088;2022-07-25T08:39:43;4.30;;;3.60;;
73264;SDS011;61493;51.008;14.088;2022-07-25T08:42:09;5.20;;;4.10;;
73264;SDS011;61493;51.008;14.088;2022-07-25T08:44:34;6.35;;;3.88;;
73264;SDS011;61493;51.008;14.088;2022-07-25T08:47:04;4.47;;;3.55;;
73264;SDS011;61493;51.008;14.088;2022-07-25T08:49:31;5.93;;;3.97;;
73264;SDS011;61493;51.008;14.088;2022-07-25T08:51:58;5.82;;;3.80;;
73264;SDS011;61493;51.008;14.088;2022-07-25T08:54:24;5.30;;;3.72;;
73264;SDS011;61493;51.008;14.088;2022-07-25T08:56:50;5.07;;;4.10;;
73264;SDS011;61493;51.008;14.088;2022-07-25T08:59:15;6.17;;;3.73;;
73264;SDS011;61493;51.008;14.088;2022-07-25T09:01:41;5.83;;;3.93;;
73264;SDS011;61493;51.008;14.088;2022-07-25T09:04:07;5.57;;;3.97;;
73264;SDS011;61493;51.008;14.088;2022-07-25T09:06:33;5.03;;;3.80;;
73264;SDS011;61493;51.008;14.088;2022-07-25T09:08:59;5.18;;;3.83;;
73264;SDS011;61493;51.008;14.088;2022-07-25T09:11:35;5.70;;;3.83;;
73264;SDS011;61493;51.008;14.088;2022-07-25T09:14:05;4.90;;;3.80;;
73264;SDS011;61493;51.008;14.088;2022-07-25T09:16:32;5.25;;;3.80;;
73264;SDS011;61493;51.008;14.088;2022-07-25T09:19:15;5.70;;;4.15;;
73264;SDS011;61493;51.008;14.088;2022-07-25T09:24:09;4.35;;;3.58;;
73264;SDS011;61493;51.008;14.088;2022-07-25T09:26:50;5.95;;;4.38;;
73264;SDS011;61493;51.008;14.088;2022-07-25T09:32:13;7.03;;;3.85;;
73264;SDS011;61493;51.008;14.088;2022-07-25T09:34:44;4.70;;;3.70;;
73264;SDS011;61493;51.008;14.088;2022-07-25T09:37:11;5.97;;;4.30;;
73264;SDS011;61493;51.008;14.088;2022-07-25T09:39:42;5.45;;;3.75;;
73264;SDS011;61493;51.008;14.088;2022-07-25T09:42:15;5.07;;;4.13;;
73264;SDS011;61493;51.008;14.088;2022-07-25T09:44:44;5.28;;;3.88;;
73264;SDS011;61493;51.008;14.088;2022-07-25T09:47:21;5.35;;;4.22;;
73264;SDS011;61493;51.008;14.088;2022-07-25T09:49:46;5.07;;;4.15;;
73264;SDS011;61493;51.008;14.088;2022-07-25T09:52:12;4.43;;;3.72;;
73264;SDS011;61493;51.008;14.088;2022-07-25T09:54:38;5.18;;;4.15;;
73264;SDS011;61493;51.008;14.088;2022-07-25T09:57:04;6.57;;;4.47;;
73264;SDS011;61493;51.008;14.088;2022-07-25T09:59:29;5.75;;;4.25;;
73264;SDS011;61493;51.008;14.088;2022-07-25T10:02:03;5.82;;;4.35;;
73264;SDS011;61493;51.008;14.088;2022-07-25T10:04:53;5.43;;;4.07;;
73264;SDS011;61493;51.008;14.088;2022-07-25T10:07:30;4.57;;;4.00;;
73264;SDS011;61493;51.008;14.088;2022-07-25T10:10:00;7.90;;;4.22;;
73264;SDS011;61493;51.008;14.088;2022-07-25T10:12:25;6.18;;;4.78;;
73264;SDS011;61493;51.008;14.088;2022-07-25T10:17:33;5.78;;;4.20;;
73264;SDS011;61493;51.008;14.088;2022-07-25T10:19:59;5.35;;;4.47;;
73264;SDS011;61493;51.008;14.088;2022-07-25T10:22:38;6.68;;;4.93;;
73264;SDS011;61493;51.008;14.088;2022-07-25T10:25:11;5.60;;;4.40;;
73264;SDS011;61493;51.008;14.088;2022-07-25T10:27:40;5.82;;;4.28;;
73264;SDS011;61493;51.008;14.088;2022-07-25T10:30:09;5.80;;;4.60;;
73264;SDS011;61493;51.008;14.088;2022-07-25T10:32:47;5.38;;;4.45;;
73264;SDS011;61493;51.008;14.088;2022-07-25T10:35:17;5.87;;;4.40;;
73264;SDS011;61493;51.008;14.088;2022-07-25T10:37:43;4.90;;;4.03;;
73264;SDS011;61493;51.008;14.088;2022-07-25T10:40:09;5.72;;;5.00;;
73264;SDS011;61493;51.008;14.088;2022-07-25T10:42:35;4.93;;;3.75;;
73264;SDS011;61493;51.008;14.088;2022-07-25T10:45:01;4.32;;;3.85;;
73264;SDS011;61493;51.008;14.088;2022-07-25T10:47:29;6.38;;;4.60;;
73264;SDS011;61493;51.008;14.088;2022-07-25T10:50:02;6.25;;;4.75;;
73264;SDS011;61493;51.008;14.088;2022-07-25T10:52:28;6.57;;;5.10;;
73264;SDS011;61493;51.008;14.088;2022-07-25T10:54:57;6.35;;;4.43;;
73264;SDS011;61493;51.008;14.088;2022-07-25T10:57:24;5.60;;;3.97;;
73264;SDS011;61493;51.008;14.088;2022-07-25T10:59:51;6.85;;;4.38;;
73264;SDS011;61493;51.008;14.088;2022-07-25T11:02:17;4.70;;;4.18;;
73264;SDS011;61493;51.008;14.088;2022-07-25T11:04:43;4.78;;;3.83;;
73264;SDS011;61493;51.008;14.088;2022-07-25T11:07:15;4.75;;;4.25;;
73264;SDS011;61493;51.008;14.088;2022-07-25T11:09:44;6.03;;;4.93;;
73264;SDS011;61493;51.008;14.088;2022-07-25T11:12:20;6.15;;;4.47;;
73264;SDS011;61493;51.008;14.088;2022-07-25T11:14:45;4.57;;;3.93;;
73264;SDS011;61493;51.008;14.088;2022-07-25T11:17:15;4.45;;;3.95;;
73264;SDS011;61493;51.008;14.088;2022-07-25T11:19:55;5.70;;;3.90;;
73264;SDS011;61493;51.008;14.088;2022-07-25T11:22:29;4.30;;;3.88;;
73264;SDS011;61493;51.008;14.088;2022-07-25T11:24:55;4.80;;;4.03;;
73264;SDS011;61493;51.008;14.088;2022-07-25T11:32:50;5.32;;;4.05;;
73264;SDS011;61493;51.008;14.088;2022-07-25T11:35:22;6.32;;;4.32;;
73264;SDS011;61493;51.008;14.088;2022-07-25T11:38:01;5.47;;;4.18;;
73264;SDS011;61493;51.008;14.088;2022-07-25T11:40:27;4.80;;;3.70;;
73264;SDS011;61493;51.008;14.088;2022-07-25T11:42:54;4.10;;;3.70;;
73264;SDS011;61493;51.008;14.088;2022-07-25T11:45:27;5.85;;;4.43;;
73264;SDS011;61493;51.008;14.088;2022-07-25T11:48:06;5.40;;;4.10;;
73264;SDS011;61493;51.008;14.088;2022-07-25T11:50:37;4.70;;;4.03;;
73264;SDS011;61493;51.008;14.088;2022-07-25T11:53:04;5.20;;;3.97;;
73264;SDS011;61493;51.008;14.088;2022-07-25T11:55:35;4.70;;;3.75;;
73264;SDS011;61493;51.008;14.088;2022-07-25T11:58:04;4.60;;;3.75;;
73264;SDS011;61493;51.008;14.088;2022-07-25T12:00:32;6.10;;;3.70;;
73264;SDS011;61493;51.008;14.088;2022-07-25T12:03:20;5.35;;;3.88;;
73264;SDS011;61493;51.008;14.088;2022-07-25T12:05:44;6.38;;;3.60;;
73264;SDS011;61493;51.008;14.088;2022-07-25T12:08:11;6.47;;;3.67;;
73264;SDS011;61493;51.008;14.088;2022-07-25T12:10:39;4.90;;;3.90;;
73264;SDS011;61493;51.008;14.088;2022-07-25T12:13:05;6.65;;;4.28;;
73264;SDS011;61493;51.008;14.088;2022-07-25T12:15:34;10.75;;;4.15;;
73264;SDS011;61493;51.008;14.088;2022-07-25T12:18:08;8.30;;;4.35;;
73264;SDS011;61493;51.008;14.088;2022-07-25T12:20:38;7.32;;;4.55;;
73264;SDS011;61493;51.008;14.088;2022-07-25T12:23:07;6.25;;;3.80;;
73264;SDS011;61493;51.008;14.088;2022-07-25T12:25:34;6.18;;;4.32;;
73264;SDS011;61493;51.008;14.088;2022-07-25T12:28:02;6.78;;;4.38;;
73264;SDS011;61493;51.008;14.088;2022-07-25T12:30:28;6.03;;;4.10;;
73264;SDS011;61493;51.008;14.088;2022-07-25T12:32:54;5.60;;;4.18;;
73264;SDS011;61493;51.008;14.088;2022-07-25T12:35:21;5.20;;;3.80;;
73264;SDS011;61493;51.008;14.088;2022-07-25T12:37:47;7.07;;;4.78;;
73264;SDS011;61493;51.008;14.088;2022-07-25T12:40:14;5.97;;;4.40;;
73264;SDS011;61493;51.008;14.088;2022-07-25T12:42:40;8.13;;;4.50;;
73264;SDS011;61493;51.008;14.088;2022-07-25T12:45:07;5.68;;;4.07;;
73264;SDS011;61493;51.008;14.088;2022-07-25T12:47:33;5.82;;;4.40;;
73264;SDS011;61493;51.008;14.088;2022-07-25T12:49:59;7.38;;;4.38;;
73264;SDS011;61493;51.008;14.088;2022-07-25T12:52:25;6.97;;;4.85;;
73264;SDS011;61493;51.008;14.088;2022-07-25T12:54:50;6.35;;;4.40;;
73264;SDS011;61493;51.008;14.088;2022-07-25T12:57:16;6.40;;;4.32;;
73264;SDS011;61493;51.008;14.088;2022-07-25T12:59:42;5.82;;;4.53;;
73264;SDS011;61493;51.008;14.088;2022-07-25T13:02:08;6.50;;;4.43;;
73264;SDS011;61493;51.008;14.088;2022-07-25T13:04:37;6.78;;;4.30;;
73264;SDS011;61493;51.008;14.088;2022-07-25T13:07:02;6.40;;;4.38;;
73264;SDS011;61493;51.008;14.088;2022-07-25T13:09:28;7.35;;;4.60;;
73264;SDS011;61493;51.008;14.088;2022-07-25T13:11:54;5.75;;;4.60;;
73264;SDS011;61493;51.008;14.088;2022-07-25T13:14:19;4.88;;;3.90;;
73264;SDS011;61493;51.008;14.088;2022-07-25T13:16:45;6.18;;;4.57;;
73264;SDS011;61493;51.008;14.088;2022-07-25T13:19:12;6.70;;;4.40;;
73264;SDS011;61493;51.008;14.088;2022-07-25T13:21:38;6.25;;;4.40;;
73264;SDS011;61493;51.008;14.088;2022-07-25T13:24:03;5.00;;;4.38;;
73264;SDS011;61493;51.008;14.088;2022-07-25T13:26:31;5.22;;;4.20;;
73264;SDS011;61493;51.008;14.088;2022-07-25T13:28:57;7.32;;;4.28;;
73264;SDS011;61493;51.008;14.088;2022-07-25T13:31:22;6.05;;;4.45;;
73264;SDS011;61493;51.008;14.088;2022-07-25T13:33:48;7.25;;;4.65;;
73264;SDS011;61493;51.008;14.088;2022-07-25T13:36:14;5.93;;;4.50;;
73264;SDS011;61493;51.008;14.088;2022-07-25T13:38:40;6.57;;;4.65;;
73264;SDS011;61493;51.008;14.088;2022-07-25T13:41:07;8.20;;;5.18;;
73264;SDS011;61493;51.008;14.088;2022-07-25T13:43:32;6.57;;;4.72;;
73264;SDS011;61493;51.008;14.088;2022-07-25T13:45:58;6.40;;;4.57;;
73264;SDS011;61493;51.008;14.088;2022-07-25T13:48:23;7.13;;;4.68;;
73264;SDS011;61493;51.008;14.088;2022-07-25T13:50:49;5.38;;;4.50;;
73264;SDS011;61493;51.008;14.088;2022-07-25T13:53:14;5.70;;;5.00;;
73264;SDS011;61493;51.008;14.088;2022-07-25T13:55:40;6.95;;;4.72;;
73264;SDS011;61493;51.008;14.088;2022-07-25T13:58:05;8.38;;;4.53;;
73264;SDS011;61493;51.008;14.088;2022-07-25T14:00:30;6.20;;;4.47;;
73264;SDS011;61493;51.008;14.088;2022-07-25T14:02:55;6.85;;;4.78;;
73264;SDS011;61493;51.008;14.088;2022-07-25T14:05:21;10.20;;;4.88;;
73264;SDS011;61493;51.008;14.088;2022-07-25T14:07:47;5.50;;;4.32;;
73264;SDS011;61493;51.008;14.088;2022-07-25T14:10:12;7.05;;;4.75;;
73264;SDS011;61493;51.008;14.088;2022-07-25T14:12:37;5.85;;;4.68;;
73264;SDS011;61493;51.008;14.088;2022-07-25T14:15:04;6.50;;;4.53;;
73264;SDS011;61493;51.008;14.088;2022-07-25T14:17:31;5.88;;;4.07;;
73264;SDS011;61493;51.008;14.088;2022-07-25T14:20:00;5.70;;;4.53;;
73264;SDS011;61493;51.008;14.088;2022-07-25T14:22:27;5.25;;;3.85;;
73264;SDS011;61493;51.008;14.088;2022-07-25T14:24:52;5.28;;;4.20;;
73264;SDS011;61493;51.008;14.088;2022-07-25T14:27:17;7.37;;;4.10;;
73264;SDS011;61493;51.008;14.088;2022-07-25T14:29:43;7.00;;;4.40;;
73264;SDS011;61493;51.008;14.088;2022-07-25T14:32:08;4.97;;;3.58;;
73264;SDS011;61493;51.008;14.088;2022-07-25T14:34:33;4.80;;;3.92;;
73264;SDS011;61493;51.008;14.088;2022-07-25T14:36:59;10.05;;;4.20;;
73264;SDS011;61493;51.008;14.088;2022-07-25T14:39:25;5.90;;;4.53;;
73264;SDS011;61493;51.008;14.088;2022-07-25T14:41:50;6.85;;;4.15;;